Time;durP1;ratioP1;P1;durP2;ratioP2;P2;SDS_P1;SDS_P2;PMS_P1;PMS_P2;Temp;Humidity;BMP_temperature;BMP_pressure;BME280_temperature;BME280_humidity;BME280_pressure;Samples;Min_cycle;Max_cycle;Signal;HPM_P1;HPM_P2
2023/10/27 00:00:48;;;;;;;0.17;0.17;;;;;;;;;;5022187;28;20068;-78
2023/10/27 00:03:15;;;;;;;0.10;0.10;;;;;;;;;;5021049;28;20415;-78
2023/10/27 00:05:44;;;;;;;0.10;0.10;;;;;;;;;;5009311;28;20045;-78
2023/10/27 00:08:13;;;;;;;0.20;0.20;;;;;;;;;;5021196;28;20061;-77
2023/10/27 00:10:41;;;;;;;0.35;0.35;;;;;;;;;;5007305;28;20558;-78
2023/10/27 00:13:08;;;;;;;0.20;0.20;;;;;;;;;;5023260;28;20212;-78
2023/10/27 00:15:36;;;;;;;0.13;0.13;;;;;;;;;;5021528;28;20081;-78
2023/10/27 00:18:04;;;;;;;0.10;0.10;;;;;;;;;;5009298;28;20041;-78
2023/10/27 00:20:32;;;;;;;0.00;0.00;;;;;;;;;;5021585;28;20057;-77
2023/10/27 00:22:59;;;;;;;0.32;0.32;;;;;;;;;;5019706;28;20057;-78
2023/10/27 00:25:27;;;;;;;0.03;0.03;;;;;;;;;;5021314;28;20051;-77
2023/10/27 00:27:54;;;;;;;0.10;0.10;;;;;;;;;;5018198;28;20060;-78
2023/10/27 00:30:22;;;;;;;0.00;0.00;;;;;;;;;;5015726;28;20158;-77
2023/10/27 00:32:50;;;;;;;0.00;0.00;;;;;;;;;;5013650;28;20065;-77
2023/10/27 00:35:17;;;;;;;0.98;0.63;;;;;;;;;;5002534;28;20065;-78
2023/10/27 00:37:45;;;;;;;0.63;0.63;;;;;;;;;;4999948;28;20412;-78
2023/10/27 00:40:13;;;;;;;0.68;0.30;;;;;;;;;;5005707;28;20053;-78
2023/10/27 00:42:41;;;;;;;0.00;0.00;;;;;;;;;;5018948;28;20057;-77
2023/10/27 00:45:09;;;;;;;0.10;0.10;;;;;;;;;;5023998;28;20458;-78
2023/10/27 00:47:37;;;;;;;0.10;0.10;;;;;;;;;;5019765;28;20120;-77
2023/10/27 00:50:05;;;;;;;0.10;0.10;;;;;;;;;;5022684;28;20045;-77
2023/10/27 00:52:32;;;;;;;0.00;0.00;;;;;;;;;;5004340;28;20100;-77
2023/10/27 00:55:00;;;;;;;0.10;0.10;;;;;;;;;;5002034;28;20578;-78
2023/10/27 00:57:28;;;;;;;0.25;0.25;;;;;;;;;;5023433;28;20057;-78
2023/10/27 00:59:56;;;;;;;0.00;0.00;;;;;;;;;;5012303;28;20056;-78
2023/10/27 01:02:23;;;;;;;0.08;0.08;;;;;;;;;;4990729;28;20094;-78
2023/10/27 01:04:51;;;;;;;0.40;0.40;;;;;;;;;;5011041;28;20053;-78
2023/10/27 01:07:21;;;;;;;0.05;0.05;;;;;;;;;;5005027;28;20461;-77
2023/10/27 01:09:49;;;;;;;0.17;0.17;;;;;;;;;;5032891;28;20534;-77
2023/10/27 01:12:17;;;;;;;0.10;0.10;;;;;;;;;;5028353;28;20058;-78
2023/10/27 01:14:44;;;;;;;0.05;0.05;;;;;;;;;;5029383;28;20049;-79
2023/10/27 01:17:13;;;;;;;0.10;0.10;;;;;;;;;;5009885;28;20045;-77
2023/10/27 01:19:41;;;;;;;0.00;0.00;;;;;;;;;;5009668;28;20048;-78
2023/10/27 01:22:12;;;;;;;0.13;0.13;;;;;;;;;;5013076;28;20056;-79
2023/10/27 01:24:39;;;;;;;0.77;0.73;;;;;;;;;;5030882;28;20045;-78
2023/10/27 01:27:07;;;;;;;0.00;0.00;;;;;;;;;;5014305;28;20095;-79
2023/10/27 01:29:35;;;;;;;1.25;0.55;;;;;;;;;;5032443;28;20458;-78
2023/10/27 01:32:03;;;;;;;0.00;0.00;;;;;;;;;;5022381;28;20057;-79
2023/10/27 01:34:30;;;;;;;0.10;0.10;;;;;;;;;;5011293;28;20057;-77
2023/10/27 01:36:58;;;;;;;0.10;0.10;;;;;;;;;;5027029;28;20366;-79
2023/10/27 01:39:26;;;;;;;0.00;0.00;;;;;;;;;;5011618;28;20041;-76
2023/10/27 01:41:53;;;;;;;0.08;0.08;;;;;;;;;;5027305;28;20076;-79
2023/10/27 01:44:21;;;;;;;0.00;0.00;;;;;;;;;;5026541;28;20121;-77
2023/10/27 01:46:48;;;;;;;0.10;0.10;;;;;;;;;;5027782;28;20072;-79
2023/10/27 01:49:16;;;;;;;0.10;0.10;;;;;;;;;;5024045;28;20048;-77
2023/10/27 01:51:44;;;;;;;0.10;0.10;;;;;;;;;;5027968;28;20053;-79
2023/10/27 01:54:11;;;;;;;0.32;0.32;;;;;;;;;;5012031;28;20041;-77
2023/10/27 01:56:39;;;;;;;0.63;0.63;;;;;;;;;;5028840;28;20056;-79
2023/10/27 01:59:06;;;;;;;0.00;0.00;;;;;;;;;;5009946;28;20053;-77
2023/10/27 02:01:34;;;;;;;0.43;0.43;;;;;;;;;;5009691;28;20208;-77
2023/10/27 02:04:01;;;;;;;2.53;2.38;;;;;;;;;;5025071;28;20181;-75
2023/10/27 02:06:29;;;;;;;0.25;0.25;;;;;;;;;;5031874;28;20143;-76
2023/10/27 02:08:57;;;;;;;0.00;0.00;;;;;;;;;;5033480;28;20065;-75
2023/10/27 02:11:25;;;;;;;0.00;0.00;;;;;;;;;;5009790;28;20041;-78
2023/10/27 02:13:53;;;;;;;0.35;0.35;;;;;;;;;;5012174;28;20380;-78
2023/10/27 02:16:21;;;;;;;2.45;2.35;;;;;;;;;;5011010;28;20054;-78
2023/10/27 02:18:48;;;;;;;0.63;0.63;;;;;;;;;;5028468;28;20076;-77
2023/10/27 02:21:16;;;;;;;0.00;0.00;;;;;;;;;;5006061;28;20053;-76
2023/10/27 02:23:43;;;;;;;0.10;0.10;;;;;;;;;;5005765;28;20064;-77
2023/10/27 02:26:11;;;;;;;0.10;0.10;;;;;;;;;;5001540;28;20046;-76
2023/10/27 02:28:38;;;;;;;0.20;0.20;;;;;;;;;;5025492;28;20401;-75
2023/10/27 02:31:06;;;;;;;0.10;0.10;;;;;;;;;;5020630;28;20052;-76
2023/10/27 02:33:33;;;;;;;0.00;0.00;;;;;;;;;;4999735;28;20048;-74
2023/10/27 02:36:01;;;;;;;0.43;0.43;;;;;;;;;;5012931;28;21163;-76
2023/10/27 02:38:28;;;;;;;0.00;0.00;;;;;;;;;;5005096;28;20068;-77
2023/10/27 02:40:56;;;;;;;0.10;0.10;;;;;;;;;;5019729;28;20423;-76
2023/10/27 02:43:24;;;;;;;0.10;0.10;;;;;;;;;;5003280;28;20049;-76
2023/10/27 02:46:02;;;;;;;0.08;0.08;;;;;;;;;;5022029;28;20045;-76
2023/10/27 02:48:29;;;;;;;0.13;0.13;;;;;;;;;;5004942;28;20132;-76
2023/10/27 02:50:57;;;;;;;0.25;0.25;;;;;;;;;;5006588;28;20045;-77
2023/10/27 02:53:24;;;;;;;0.15;0.15;;;;;;;;;;4999648;28;20069;-76
2023/10/27 02:55:52;;;;;;;0.25;0.25;;;;;;;;;;5021788;28;20114;-76
2023/10/27 02:58:19;;;;;;;0.00;0.00;;;;;;;;;;5026940;28;20098;-77
2023/10/27 03:00:47;;;;;;;0.20;0.20;;;;;;;;;;5022659;28;20404;-77
2023/10/27 03:03:14;;;;;;;0.10;0.10;;;;;;;;;;5022956;28;20053;-77
2023/10/27 03:05:42;;;;;;;0.10;0.10;;;;;;;;;;5005755;28;20069;-77
2023/10/27 03:08:09;;;;;;;0.00;0.00;;;;;;;;;;5004322;28;20053;-77
2023/10/27 03:10:37;;;;;;;0.15;0.15;;;;;;;;;;5021657;28;20049;-77
2023/10/27 03:13:08;;;;;;;0.10;0.10;;;;;;;;;;5004472;28;20073;-77
2023/10/27 03:15:36;;;;;;;0.20;0.20;;;;;;;;;;5023045;28;20187;-77
2023/10/27 03:18:03;;;;;;;0.22;0.22;;;;;;;;;;5018212;28;20054;-77
2023/10/27 03:20:31;;;;;;;0.47;0.47;;;;;;;;;;5016152;28;20371;-77
2023/10/27 03:22:58;;;;;;;2.05;1.92;;;;;;;;;;5024967;28;20046;-77
2023/10/27 03:25:26;;;;;;;0.70;0.70;;;;;;;;;;5021456;28;20531;-77
2023/10/27 03:27:53;;;;;;;0.00;0.00;;;;;;;;;;5022262;28;20041;-77
2023/10/27 03:30:24;;;;;;;0.10;0.10;;;;;;;;;;5022277;28;20052;-77
2023/10/27 03:32:52;;;;;;;0.20;0.20;;;;;;;;;;5019043;28;20091;-77
2023/10/27 03:35:21;;;;;;;0.30;0.30;;;;;;;;;;5018497;28;20129;-77
2023/10/27 03:37:48;;;;;;;0.25;0.25;;;;;;;;;;5018096;28;20408;-77
2023/10/27 03:40:16;;;;;;;0.00;0.00;;;;;;;;;;4999931;28;20057;-77
2023/10/27 03:42:44;;;;;;;0.00;0.00;;;;;;;;;;4999680;28;20080;-77
2023/10/27 03:45:11;;;;;;;0.10;0.10;;;;;;;;;;5005426;28;20123;-77
2023/10/27 03:47:39;;;;;;;2.45;2.28;;;;;;;;;;5018532;28;20045;-76
2023/10/27 03:50:10;;;;;;;0.10;0.10;;;;;;;;;;5001739;28;20099;-76
2023/10/27 03:52:38;;;;;;;0.10;0.10;;;;;;;;;;5000420;28;20049;-76
2023/10/27 03:55:07;;;;;;;0.80;0.50;;;;;;;;;;5020840;28;20049;-77
2023/10/27 03:57:35;;;;;;;0.10;0.10;;;;;;;;;;5019158;28;20045;-76
2023/10/27 04:00:04;;;;;;;0.25;0.25;;;;;;;;;;5015451;28;20053;-76
2023/10/27 04:02:38;;;;;;;0.10;0.10;;;;;;;;;;5014808;28;20053;-76
2023/10/27 04:05:06;;;;;;;0.40;0.40;;;;;;;;;;5012542;28;20124;-76
2023/10/27 04:07:34;;;;;;;0.52;0.52;;;;;;;;;;5018850;28;20040;-76
2023/10/27 04:10:01;;;;;;;0.00;0.00;;;;;;;;;;5014612;28;20049;-75
2023/10/27 04:12:29;;;;;;;0.10;0.10;;;;;;;;;;5018077;28;20426;-75
2023/10/27 04:14:57;;;;;;;0.20;0.20;;;;;;;;;;5020649;28;20777;-75
2023/10/27 04:17:24;;;;;;;0.10;0.10;;;;;;;;;;5019255;28;20064;-76
2023/10/27 04:19:52;;;;;;;0.10;0.10;;;;;;;;;;5019579;28;20140;-75
2023/10/27 04:22:20;;;;;;;0.20;0.20;;;;;;;;;;5017649;28;20048;-72
2023/10/27 04:24:48;;;;;;;0.30;0.30;;;;;;;;;;5018977;28;20060;-76
2023/10/27 04:27:16;;;;;;;0.10;0.10;;;;;;;;;;5019792;28;20055;-76
2023/10/27 04:29:43;;;;;;;0.20;0.20;;;;;;;;;;5017932;28;20055;-76
2023/10/27 04:32:13;;;;;;;0.10;0.10;;;;;;;;;;5020757;28;20559;-76
2023/10/27 04:34:41;;;;;;;0.10;0.10;;;;;;;;;;5013695;28;20127;-76
2023/10/27 04:37:08;;;;;;;0.10;0.10;;;;;;;;;;5023495;28;20380;-76
2023/10/27 04:39:36;;;;;;;0.10;0.10;;;;;;;;;;5026931;28;20063;-75
2023/10/27 04:42:04;;;;;;;0.10;0.10;;;;;;;;;;5020597;28;20541;-75
2023/10/27 04:44:35;;;;;;;0.10;0.10;;;;;;;;;;5019380;28;20441;-76
2023/10/27 04:47:03;;;;;;;0.20;0.20;;;;;;;;;;5013362;28;20033;-76
2023/10/27 04:49:30;;;;;;;0.10;0.10;;;;;;;;;;5020593;28;20053;-76
2023/10/27 04:51:59;;;;;;;0.00;0.00;;;;;;;;;;5001879;28;20053;-75
2023/10/27 04:54:27;;;;;;;0.22;0.22;;;;;;;;;;5011830;28;20157;-76
2023/10/27 04:56:54;;;;;;;0.10;0.10;;;;;;;;;;5002759;28;20056;-76
2023/10/27 04:59:22;;;;;;;0.10;0.10;;;;;;;;;;5018246;28;20070;-76
2023/10/27 05:01:49;;;;;;;0.45;0.45;;;;;;;;;;5012044;28;20037;-75
2023/10/27 05:04:17;;;;;;;0.55;0.55;;;;;;;;;;5015082;28;20154;-75
2023/10/27 05:06:45;;;;;;;0.20;0.20;;;;;;;;;;5018647;28;20049;-75
2023/10/27 05:09:12;;;;;;;4.18;0.75;;;;;;;;;;5019096;28;20785;-76
2023/10/27 05:11:42;;;;;;;0.30;0.30;;;;;;;;;;5015876;28;20069;-77
2023/10/27 05:14:10;;;;;;;0.00;0.00;;;;;;;;;;4998840;28;20037;-76
2023/10/27 05:16:38;;;;;;;0.20;0.20;;;;;;;;;;5006470;28;20053;-76
2023/10/27 05:19:08;;;;;;;0.90;0.60;;;;;;;;;;4997982;28;20053;-77
2023/10/27 05:21:36;;;;;;;0.13;0.13;;;;;;;;;;5016383;28;20755;-77
2023/10/27 05:24:05;;;;;;;2.65;0.77;;;;;;;;;;5007453;28;20111;-76
2023/10/27 05:26:32;;;;;;;0.10;0.10;;;;;;;;;;5016943;28;20438;-76
2023/10/27 05:29:00;;;;;;;0.10;0.10;;;;;;;;;;5026455;28;20045;-76
2023/10/27 05:31:27;;;;;;;0.40;0.40;;;;;;;;;;5023657;28;20057;-77
2023/10/27 05:33:55;;;;;;;0.20;0.20;;;;;;;;;;5019619;28;20128;-77
2023/10/27 05:36:23;;;;;;;0.05;0.05;;;;;;;;;;5026788;28;20140;-77
2023/10/27 05:38:50;;;;;;;0.55;0.38;;;;;;;;;;5027198;28;20046;-77
2023/10/27 05:41:17;;;;;;;0.30;0.30;;;;;;;;;;5024120;28;20199;-77
2023/10/27 05:43:45;;;;;;;0.15;0.15;;;;;;;;;;4985725;28;20091;-77
2023/10/27 05:46:13;;;;;;;1.08;1.08;;;;;;;;;;5023610;28;20502;-78
2023/10/27 05:48:41;;;;;;;0.10;0.10;;;;;;;;;;5017780;28;20130;-76
2023/10/27 05:51:09;;;;;;;0.10;0.10;;;;;;;;;;5002054;28;20041;-76
2023/10/27 05:53:37;;;;;;;0.08;0.08;;;;;;;;;;5012924;28;20042;-77
2023/10/27 05:56:04;;;;;;;0.38;0.38;;;;;;;;;;5016516;28;20042;-77
2023/10/27 05:58:35;;;;;;;0.00;0.00;;;;;;;;;;5021055;28;20099;-76
2023/10/27 06:01:03;;;;;;;0.30;0.30;;;;;;;;;;5024625;28;20050;-77
2023/10/27 06:03:31;;;;;;;0.10;0.10;;;;;;;;;;5023931;28;20053;-76
2023/10/27 06:05:58;;;;;;;0.17;0.17;;;;;;;;;;5022458;28;20357;-77
2023/10/27 06:08:25;;;;;;;0.57;0.57;;;;;;;;;;5027836;28;20495;-77
2023/10/27 06:10:53;;;;;;;0.17;0.17;;;;;;;;;;5007540;28;20049;-77
2023/10/27 06:13:20;;;;;;;1.13;0.65;;;;;;;;;;5023744;28;20049;-76
2023/10/27 06:15:48;;;;;;;0.40;0.40;;;;;;;;;;5025114;28;20041;-77
2023/10/27 06:18:15;;;;;;;0.10;0.10;;;;;;;;;;5026865;28;20065;-77
2023/10/27 06:20:43;;;;;;;0.10;0.10;;;;;;;;;;5025842;28;20045;-76
2023/10/27 06:23:10;;;;;;;0.20;0.20;;;;;;;;;;5022444;28;20050;-76
2023/10/27 06:25:41;;;;;;;0.40;0.40;;;;;;;;;;5027393;28;20450;-78
2023/10/27 06:28:08;;;;;;;0.30;0.30;;;;;;;;;;5026689;28;20155;-76
2023/10/27 06:30:36;;;;;;;0.17;0.17;;;;;;;;;;5022678;28;20057;-76
2023/10/27 06:33:03;;;;;;;0.10;0.10;;;;;;;;;;5010485;28;20057;-76
2023/10/27 06:35:31;;;;;;;0.20;0.20;;;;;;;;;;5024042;28;20057;-76
2023/10/27 06:37:59;;;;;;;0.20;0.20;;;;;;;;;;5007387;28;20626;-76
2023/10/27 06:40:26;;;;;;;0.10;0.10;;;;;;;;;;5026740;28;20054;-76
2023/10/27 06:42:53;;;;;;;0.13;0.13;;;;;;;;;;5020054;28;20069;-77
2023/10/27 06:45:21;;;;;;;0.00;0.00;;;;;;;;;;5023365;28;20058;-75
2023/10/27 06:47:48;;;;;;;0.10;0.10;;;;;;;;;;5006943;28;20141;-75
2023/10/27 06:50:16;;;;;;;0.20;0.20;;;;;;;;;;5021645;28;20046;-76
2023/10/27 06:52:43;;;;;;;0.10;0.10;;;;;;;;;;5026415;28;20052;-76
2023/10/27 06:55:11;;;;;;;0.10;0.10;;;;;;;;;;5019078;28;20095;-76
2023/10/27 06:57:39;;;;;;;0.28;0.28;;;;;;;;;;5023115;28;20052;-76
2023/10/27 07:00:07;;;;;;;0.00;0.00;;;;;;;;;;5023789;28;20053;-77
2023/10/27 07:02:34;;;;;;;0.20;0.20;;;;;;;;;;5018920;28;20053;-76
2023/10/27 07:05:23;;;;;;;0.25;0.20;;;;;;;;;;5018030;28;20038;-77
2023/10/27 07:07:51;;;;;;;0.38;0.38;;;;;;;;;;5020659;28;20389;-77
2023/10/27 07:10:19;;;;;;;0.10;0.10;;;;;;;;;;5021052;28;20041;-77
2023/10/27 07:12:47;;;;;;;0.10;0.10;;;;;;;;;;5025819;28;20037;-76
2023/10/27 07:15:15;;;;;;;0.10;0.10;;;;;;;;;;5025424;28;20487;-78
2023/10/27 07:17:42;;;;;;;0.10;0.10;;;;;;;;;;5025878;28;20046;-77
2023/10/27 07:20:10;;;;;;;0.10;0.10;;;;;;;;;;5025084;28;20058;-77
2023/10/27 07:22:38;;;;;;;0.32;0.32;;;;;;;;;;5025995;28;20048;-76
2023/10/27 07:25:06;;;;;;;1.17;0.20;;;;;;;;;;5005408;28;20142;-76
2023/10/27 07:27:33;;;;;;;0.20;0.20;;;;;;;;;;5025597;28;20454;-77
2023/10/27 07:30:01;;;;;;;0.63;0.63;;;;;;;;;;5017148;28;20045;-76
2023/10/27 07:32:28;;;;;;;0.32;0.32;;;;;;;;;;5027467;28;20092;-76
2023/10/27 07:34:58;;;;;;;0.10;0.10;;;;;;;;;;5024933;28;20423;-76
2023/10/27 07:37:25;;;;;;;0.20;0.20;;;;;;;;;;5026889;28;20049;-78
2023/10/27 07:39:53;;;;;;;0.10;0.10;;;;;;;;;;5024195;28;20501;-78
2023/10/27 07:42:20;;;;;;;0.10;0.10;;;;;;;;;;5025767;28;20061;-77
2023/10/27 07:44:47;;;;;;;0.25;0.25;;;;;;;;;;5024857;28;20068;-77
2023/10/27 07:47:15;;;;;;;0.60;0.40;;;;;;;;;;5019951;28;20309;-78
2023/10/27 07:49:42;;;;;;;0.28;0.28;;;;;;;;;;5024974;28;20175;-77
2023/10/27 07:52:10;;;;;;;0.10;0.10;;;;;;;;;;5021412;28;20111;-77
2023/10/27 07:54:37;;;;;;;0.10;0.10;;;;;;;;;;5019645;28;20422;-76
2023/10/27 07:57:05;;;;;;;0.10;0.10;;;;;;;;;;5018932;28;20064;-77
2023/10/27 07:59:32;;;;;;;0.10;0.10;;;;;;;;;;5018381;28;20046;-77
2023/10/27 08:02:00;;;;;;;0.08;0.08;;;;;;;;;;5020841;28;20052;-77
2023/10/27 08:04:32;;;;;;;0.10;0.10;;;;;;;;;;5005441;28;20111;-77
2023/10/27 08:06:59;;;;;;;0.30;0.30;;;;;;;;;;5016884;28;20056;-77
2023/10/27 08:09:29;;;;;;;0.00;0.00;;;;;;;;;;5027134;28;20050;-77
2023/10/27 08:11:57;;;;;;;0.00;0.00;;;;;;;;;;5028068;28;20042;-77
2023/10/27 08:14:24;;;;;;;0.10;0.10;;;;;;;;;;5005012;28;20046;-77
2023/10/27 08:16:52;;;;;;;0.10;0.10;;;;;;;;;;5022574;28;20049;-77
2023/10/27 08:19:20;;;;;;;0.10;0.10;;;;;;;;;;5028545;28;20140;-77
2023/10/27 08:21:48;;;;;;;0.15;0.15;;;;;;;;;;5008915;28;20075;-77
2023/10/27 08:24:16;;;;;;;0.00;0.00;;;;;;;;;;5027201;28;20045;-77
2023/10/27 08:26:43;;;;;;;0.10;0.10;;;;;;;;;;5029671;28;20045;-76
2023/10/27 08:29:11;;;;;;;0.00;0.00;;;;;;;;;;5030822;28;20054;-77
2023/10/27 08:31:38;;;;;;;0.10;0.10;;;;;;;;;;5030390;28;20045;-77
2023/10/27 08:34:10;;;;;;;0.00;0.00;;;;;;;;;;5029140;28;20379;-78
2023/10/27 08:36:39;;;;;;;0.05;0.05;;;;;;;;;;5014707;28;20133;-78
2023/10/27 08:39:07;;;;;;;0.03;0.03;;;;;;;;;;5031608;28;20053;-78
2023/10/27 08:41:36;;;;;;;0.05;0.05;;;;;;;;;;5031927;28;20048;-77
2023/10/27 08:44:07;;;;;;;0.03;0.03;;;;;;;;;;5030176;28;20034;-77
2023/10/27 08:46:53;;;;;;;0.10;0.10;;;;;;;;;;5025335;28;20427;-78
2023/10/27 08:49:21;;;;;;;0.28;0.28;;;;;;;;;;5014608;28;20053;-78
2023/10/27 08:51:49;;;;;;;0.10;0.10;;;;;;;;;;5030185;28;20068;-78
2023/10/27 08:54:16;;;;;;;0.20;0.20;;;;;;;;;;5028446;28;20052;-78
2023/10/27 08:56:44;;;;;;;0.10;0.10;;;;;;;;;;5028604;28;20096;-78
2023/10/27 08:59:11;;;;;;;0.25;0.25;;;;;;;;;;5030622;28;20052;-78
2023/10/27 09:01:39;;;;;;;0.10;0.10;;;;;;;;;;5026707;28;20064;-78
2023/10/27 09:04:12;;;;;;;0.10;0.10;;;;;;;;;;5029827;28;20041;-78
2023/10/27 09:06:40;;;;;;;0.03;0.03;;;;;;;;;;5030791;28;20415;-78
2023/10/27 09:09:11;;;;;;;0.10;0.10;;;;;;;;;;5027635;28;20068;-78
2023/10/27 09:11:42;;;;;;;0.10;0.10;;;;;;;;;;5029039;28;20046;-78
2023/10/27 09:14:37;;;;;;;0.10;0.10;;;;;;;;;;5010913;28;20084;-77
2023/10/27 09:17:09;;;;;;;0.17;0.17;;;;;;;;;;5025231;28;20430;-77
2023/10/27 09:19:39;;;;;;;0.45;0.45;;;;;;;;;;5010984;28;20099;-77
2023/10/27 09:22:16;;;;;;;0.88;0.85;;;;;;;;;;5028557;28;20060;-78
2023/10/27 09:24:44;;;;;;;0.15;0.15;;;;;;;;;;5023241;28;20053;-78
2023/10/27 09:27:13;;;;;;;0.10;0.10;;;;;;;;;;5026251;28;20049;-78
2023/10/27 09:29:41;;;;;;;0.00;0.00;;;;;;;;;;5029343;28;20049;-77
2023/10/27 09:32:40;;;;;;;0.10;0.10;;;;;;;;;;5026512;28;20042;-78
2023/10/27 09:35:15;;;;;;;0.30;0.30;;;;;;;;;;5014764;28;20084;-77
2023/10/27 09:37:42;;;;;;;0.10;0.10;;;;;;;;;;5026988;28;20128;-77
2023/10/27 09:40:11;;;;;;;0.10;0.10;;;;;;;;;;5029057;28;20049;-78
2023/10/27 09:42:39;;;;;;;0.43;0.43;;;;;;;;;;5029683;28;20056;-77
2023/10/27 09:45:17;;;;;;;0.20;0.20;;;;;;;;;;5028577;28;20050;-77
2023/10/27 09:47:47;;;;;;;0.10;0.10;;;;;;;;;;5027513;28;20616;-77
2023/10/27 09:50:24;;;;;;;0.10;0.10;;;;;;;;;;5011704;28;20049;-78
2023/10/27 09:52:54;;;;;;;0.75;0.20;;;;;;;;;;5029152;28;20525;-78
2023/10/27 09:55:21;;;;;;;0.25;0.25;;;;;;;;;;5027753;28;20038;-78
2023/10/27 09:57:49;;;;;;;0.30;0.20;;;;;;;;;;5029805;28;20053;-77
2023/10/27 10:00:18;;;;;;;0.25;0.25;;;;;;;;;;5029779;28;20049;-78
2023/10/27 10:02:46;;;;;;;1.27;0.50;;;;;;;;;;5010962;28;20128;-78
2023/10/27 10:05:14;;;;;;;0.20;0.20;;;;;;;;;;5012177;28;20045;-78
2023/10/27 10:07:52;;;;;;;0.25;0.25;;;;;;;;;;5012492;28;20574;-78
2023/10/27 10:10:21;;;;;;;0.22;0.22;;;;;;;;;;5029591;28;20045;-78
2023/10/27 10:13:01;;;;;;;0.40;0.40;;;;;;;;;;5027643;28;20045;-78
2023/10/27 10:15:29;;;;;;;0.30;0.30;;;;;;;;;;5030104;28;20460;-78
2023/10/27 10:17:56;;;;;;;0.30;0.30;;;;;;;;;;5029352;28;20492;-78
2023/10/27 10:20:56;;;;;;;0.15;0.15;;;;;;;;;;5023903;28;20132;-78
2023/10/27 10:23:25;;;;;;;0.20;0.20;;;;;;;;;;5002610;28;20068;-78
2023/10/27 10:25:54;;;;;;;0.10;0.10;;;;;;;;;;5027961;28;20041;-78
2023/10/27 10:28:22;;;;;;;0.35;0.35;;;;;;;;;;5007095;28;20041;-78
2023/10/27 10:31:13;;;;;;;0.10;0.10;;;;;;;;;;5025553;28;20045;-78
2023/10/27 10:33:44;;;;;;;0.40;0.40;;;;;;;;;;5023462;28;20123;-78
2023/10/27 10:36:18;;;;;;;0.10;0.10;;;;;;;;;;5028944;28;20099;-78
2023/10/27 10:38:56;;;;;;;0.45;0.45;;;;;;;;;;5028078;28;20059;-78
2023/10/27 10:41:43;;;;;;;0.20;0.20;;;;;;;;;;5027264;28;20057;-78
2023/10/27 10:44:15;;;;;;;0.10;0.10;;;;;;;;;;5027205;28;20053;-78
2023/10/27 10:46:43;;;;;;;1.27;0.52;;;;;;;;;;5031149;28;20054;-78
2023/10/27 10:49:24;;;;;;;0.10;0.10;;;;;;;;;;5025277;28;20068;-80
2023/10/27 10:51:52;;;;;;;0.13;0.10;;;;;;;;;;5027089;28;20056;-77
2023/10/27 10:54:25;;;;;;;0.10;0.10;;;;;;;;;;5006147;28;20121;-78
2023/10/27 10:57:19;;;;;;;0.10;0.10;;;;;;;;;;5027965;28;20053;-77
2023/10/27 10:59:53;;;;;;;0.10;0.10;;;;;;;;;;5022712;28;20064;-78
2023/10/27 11:02:21;;;;;;;0.20;0.20;;;;;;;;;;5027001;28;20175;-78
2023/10/27 11:04:49;;;;;;;0.00;0.00;;;;;;;;;;5023961;28;20053;-78
2023/10/27 11:07:18;;;;;;;0.17;0.10;;;;;;;;;;5009044;28;20057;-78
2023/10/27 11:09:46;;;;;;;0.20;0.20;;;;;;;;;;5027617;28;20507;-78
2023/10/27 11:12:26;;;;;;;0.10;0.10;;;;;;;;;;5027408;28;20068;-78
2023/10/27 11:14:53;;;;;;;0.35;0.35;;;;;;;;;;5022829;28;20053;-78
2023/10/27 11:17:21;;;;;;;0.10;0.10;;;;;;;;;;5027896;28;20115;-79
2023/10/27 11:19:52;;;;;;;0.10;0.10;;;;;;;;;;5025136;28;20068;-78
2023/10/27 11:22:20;;;;;;;;;;;;;;;;;;5023662;28;20045;-79
2023/10/27 11:24:47;;;;;;;0.52;0.52;;;;;;;;;;5023408;28;20405;-79
2023/10/27 11:27:25;;;;;;;0.10;0.10;;;;;;;;;;5023955;28;20057;-80
2023/10/27 11:29:59;;;;;;;0.55;0.55;;;;;;;;;;5026894;28;20466;-78
2023/10/27 11:32:27;;;;;;;1.02;0.95;;;;;;;;;;5023481;28;20045;-79
2023/10/27 11:34:58;;;;;;;0.10;0.10;;;;;;;;;;5024195;28;20041;-77
2023/10/27 11:37:26;;;;;;;0.10;0.10;;;;;;;;;;5024749;28;20523;-77
2023/10/27 11:39:54;;;;;;;0.00;0.00;;;;;;;;;;5029147;28;20055;-77
2023/10/27 11:42:22;;;;;;;0.10;0.10;;;;;;;;;;5022660;28;20049;-78
2023/10/27 11:44:49;;;;;;;0.05;0.05;;;;;;;;;;5004356;28;20116;-77
2023/10/27 11:47:17;;;;;;;0.30;0.30;;;;;;;;;;5017301;28;20052;-78
2023/10/27 11:49:44;;;;;;;0.20;0.20;;;;;;;;;;5026163;28;20107;-78
2023/10/27 11:52:14;;;;;;;0.35;0.20;;;;;;;;;;5029213;28;20357;-78
2023/10/27 11:54:42;;;;;;;0.10;0.10;;;;;;;;;;5005839;28;20045;-77
2023/10/27 11:57:09;;;;;;;0.52;0.52;;;;;;;;;;5027564;28;20042;-78
2023/10/27 11:59:37;;;;;;;0.20;0.20;;;;;;;;;;5024311;28;20057;-77
2023/10/27 12:02:04;;;;;;;1.08;1.08;;;;;;;;;;5025969;28;20088;-78
2023/10/27 12:04:32;;;;;;;0.60;0.60;;;;;;;;;;5025491;28;20046;-79
2023/10/27 12:07:00;;;;;;;0.25;0.25;;;;;;;;;;5008232;28;20055;-78
2023/10/27 12:09:27;;;;;;;0.08;0.08;;;;;;;;;;5017510;28;20048;-77
2023/10/27 12:11:55;;;;;;;0.08;0.08;;;;;;;;;;5023765;28;20499;-77
2023/10/27 12:14:23;;;;;;;0.08;0.08;;;;;;;;;;5012785;28;20570;-77
2023/10/27 12:16:51;;;;;;;0.80;0.38;;;;;;;;;;5017204;28;20046;-77
2023/10/27 12:19:19;;;;;;;0.10;0.10;;;;;;;;;;5019829;28;20426;-77
2023/10/27 12:21:48;;;;;;;0.00;0.00;;;;;;;;;;5020645;28;20056;-77
2023/10/27 12:24:15;;;;;;;0.05;0.05;;;;;;;;;;5018467;28;20140;-77
2023/10/27 12:26:44;;;;;;;0.10;0.10;;;;;;;;;;5018601;28;20049;-77
2023/10/27 12:29:12;;;;;;;0.00;0.00;;;;;;;;;;5019633;28;20115;-77
2023/10/27 12:31:39;;;;;;;0.03;0.03;;;;;;;;;;5033634;23;20152;-73
2023/10/27 12:34:11;;;;;;;0.00;0.00;;;;;;;;;;5024969;28;20050;-73
2023/10/27 12:36:38;;;;;;;;;;;;;;;;;;5015515;28;20041;-73
2023/10/27 12:39:07;;;;;;;0.00;0.00;;;;;;;;;;4992762;28;20447;-73
2023/10/27 12:41:35;;;;;;;0.10;0.10;;;;;;;;;;5017960;28;20128;-73
2023/10/27 12:44:03;;;;;;;0.00;0.00;;;;;;;;;;5020822;28;20057;-73
2023/10/27 12:46:31;;;;;;;0.10;0.10;;;;;;;;;;5021251;28;20054;-74
2023/10/27 12:48:58;;;;;;;0.00;0.00;;;;;;;;;;5019939;28;20042;-74
2023/10/27 12:51:26;;;;;;;0.20;0.20;;;;;;;;;;5017529;28;20041;-75
2023/10/27 12:53:54;;;;;;;0.50;0.50;;;;;;;;;;5017179;28;20461;-74
2023/10/27 12:56:21;;;;;;;0.10;0.10;;;;;;;;;;5021884;28;20053;-74
2023/10/27 12:58:49;;;;;;;0.82;0.57;;;;;;;;;;5024288;28;20049;-74
2023/10/27 13:01:17;;;;;;;0.10;0.10;;;;;;;;;;5018161;28;20376;-75
2023/10/27 13:03:45;;;;;;;1.67;0.57;;;;;;;;;;5021666;28;20041;-77
2023/10/27 13:06:15;;;;;;;0.20;0.20;;;;;;;;;;5023902;28;20096;-75
2023/10/27 13:08:43;;;;;;;0.20;0.20;;;;;;;;;;5019491;28;20410;-73
2023/10/27 13:11:12;;;;;;;0.38;0.38;;;;;;;;;;5022223;28;20044;-74
2023/10/27 13:13:40;;;;;;;1.55;0.73;;;;;;;;;;5028324;28;20049;-74
2023/10/27 13:16:17;;;;;;;0.20;0.20;;;;;;;;;;5025216;28;20045;-73
2023/10/27 13:18:45;;;;;;;0.10;0.10;;;;;;;;;;5022893;28;20599;-74
2023/10/27 13:21:18;;;;;;;0.05;0.05;;;;;;;;;;5010196;28;20791;-74
2023/10/27 13:23:45;;;;;;;0.80;0.30;;;;;;;;;;5016723;28;20048;-73
2023/10/27 13:26:13;;;;;;;0.00;0.00;;;;;;;;;;5028525;28;20135;-73
2023/10/27 13:28:43;;;;;;;0.00;0.00;;;;;;;;;;5020528;28;20060;-73
2023/10/27 13:31:11;;;;;;;0.10;0.10;;;;;;;;;;5028812;28;20077;-73
2023/10/27 13:33:38;;;;;;;0.13;0.10;;;;;;;;;;5028327;28;20041;-77
2023/10/27 13:36:09;;;;;;;0.00;0.00;;;;;;;;;;5022736;28;20843;-73
2023/10/27 13:38:37;;;;;;;0.00;0.00;;;;;;;;;;5024771;28;20045;-73
2023/10/27 13:41:05;;;;;;;0.00;0.00;;;;;;;;;;5021983;28;20554;-73
2023/10/27 13:43:34;;;;;;;0.13;0.13;;;;;;;;;;5019194;28;20041;-73
2023/10/27 13:46:02;;;;;;;0.30;0.30;;;;;;;;;;5026388;28;20089;-73
2023/10/27 13:48:33;;;;;;;0.30;0.30;;;;;;;;;;5000457;28;20056;-72
2023/10/27 13:51:07;;;;;;;0.17;0.17;;;;;;;;;;5025240;28;20048;-73
2023/10/27 13:53:35;;;;;;;0.10;0.10;;;;;;;;;;5025156;28;20044;-75
2023/10/27 13:56:02;;;;;;;0.20;0.20;;;;;;;;;;5019903;28;20071;-74
2023/10/27 13:58:30;;;;;;;2.53;0.90;;;;;;;;;;5027950;28;20056;-75
2023/10/27 14:01:01;;;;;;;0.30;0.30;;;;;;;;;;5023336;28;20061;-74
2023/10/27 14:03:29;;;;;;;0.82;0.82;;;;;;;;;;5022301;28;20419;-76
2023/10/27 14:05:57;;;;;;;0.20;0.20;;;;;;;;;;5020033;28;20085;-73
2023/10/27 14:08:25;;;;;;;0.10;0.10;;;;;;;;;;5022316;28;20088;-74
2023/10/27 14:10:53;;;;;;;0.10;0.10;;;;;;;;;;5007207;28;20549;-75
2023/10/27 14:13:21;;;;;;;0.10;0.10;;;;;;;;;;5018481;28;20048;-75
2023/10/27 14:15:49;;;;;;;0.50;0.50;;;;;;;;;;5020716;28;20060;-74
2023/10/27 14:18:16;;;;;;;0.10;0.10;;;;;;;;;;5027693;28;20058;-74
2023/10/27 14:20:44;;;;;;;0.10;0.10;;;;;;;;;;5006989;28;20053;-73
2023/10/27 14:23:11;;;;;;;0.10;0.10;;;;;;;;;;5021805;28;20053;-74
2023/10/27 14:25:40;;;;;;;0.10;0.10;;;;;;;;;;5026396;28;20556;-74
2023/10/27 14:28:09;;;;;;;0.10;0.10;;;;;;;;;;5026935;28;20064;-75
2023/10/27 14:30:37;;;;;;;0.13;0.13;;;;;;;;;;5026163;28;20049;-75
2023/10/27 14:33:08;;;;;;;0.00;0.00;;;;;;;;;;5027000;28;20124;-74
2023/10/27 14:35:36;;;;;;;0.10;0.10;;;;;;;;;;5024211;28;20045;-75
2023/10/27 14:38:03;;;;;;;0.40;0.40;;;;;;;;;;5026182;28;20034;-75
2023/10/27 14:40:31;;;;;;;0.00;0.00;;;;;;;;;;5027767;28;20049;-78
2023/10/27 14:42:58;;;;;;;0.10;0.10;;;;;;;;;;5030764;28;20053;-79
2023/10/27 14:45:26;;;;;;;0.00;0.00;;;;;;;;;;5027765;28;20056;-78
2023/10/27 14:47:54;;;;;;;0.10;0.10;;;;;;;;;;5027459;28;20060;-78
2023/10/27 14:50:22;;;;;;;0.08;0.08;;;;;;;;;;5031025;28;20069;-80
2023/10/27 14:52:52;;;;;;;1.00;0.38;;;;;;;;;;5026671;28;20515;-79